Time,TemperatureF,DewpointF,PressureIn,WindDirection,WindDirectionDegrees,WindSpeedMPH,WindSpeedGustMPH,Humidity,HourlyPrecipIn,Conditions,Clouds,dailyrainin,SolarRadiationWatts/m^2,SoftwareType,DateUTC
2013-04-28 00:01:00,43.0,27.0,-100.00,West,274,14.0,29.0,52,0.00,,,0.00,0.000000,,2013-04-28 06:01:00,
2013-04-28 00:32:00,42.0,28.0,-100.00,West,279,13.0,20.0,57,0.00,,,0.00,0.000000,,2013-04-28 06:32:00,
2013-04-28 00:42:00,42.0,28.0,-100.00,West,279,13.0,20.0,57,0.00,,,0.00,0.000000,,2013-04-28 06:42:00,
2013-04-28 00:52:00,42.0,28.0,-100.00,West,279,13.0,20.0,57,0.00,,,0.00,0.000000,,2013-04-28 06:52:00,
2013-04-28 01:01:00,42.0,28.0,-100.00,West,279,13.0,20.0,57,0.00,,,0.00,0.000000,,2013-04-28 07:01:00,
2013-04-28 01:32:00,41.0,29.0,-100.00,West,265,15.0,22.0,63,0.00,,,0.00,0.000000,,2013-04-28 07:32:00,
2013-04-28 01:42:00,41.0,29.0,-100.00,West,265,15.0,22.0,63,0.00,,,0.00,0.000000,,2013-04-28 07:42:00,
2013-04-28 01:52:00,41.0,29.0,-100.00,West,265,15.0,22.0,63,0.00,,,0.00,0.000000,,2013-04-28 07:52:00,
2013-04-28 02:01:00,41.0,29.0,-100.00,West,265,15.0,22.0,63,0.00,,,0.00,0.000000,,2013-04-28 08:01:00,
2013-04-28 02:32:00,39.0,29.0,-100.00,WNW,285,11.0,23.0,67,0.00,,,0.00,0.000000,,2013-04-28 08:32:00,
2013-04-28 02:42:00,39.0,29.0,-100.00,WNW,285,11.0,23.0,67,0.00,,,0.00,0.000000,,2013-04-28 08:42:00,
2013-04-28 02:52:00,39.0,29.0,-100.00,WNW,285,11.0,23.0,67,0.00,,,0.00,0.000000,,2013-04-28 08:52:00,
2013-04-28 03:01:00,39.0,29.0,-100.00,WNW,285,11.0,23.0,67,0.00,,,0.00,0.000000,,2013-04-28 09:01:00,
2013-04-28 03:33:00,39.0,27.0,-100.00,SW,227,7.0,17.0,62,0.00,,,-99.99,0.000000,,2013-04-28 09:33:00,
2013-04-28 03:42:00,39.0,27.0,-100.00,SW,227,7.0,17.0,62,0.00,,,-99.99,0.000000,,2013-04-28 09:42:00,
2013-04-28 03:53:00,39.0,27.0,-100.00,SW,227,7.0,17.0,62,0.00,,,-99.99,0.000000,,2013-04-28 09:53:00,
2013-04-28 04:02:00,39.0,27.0,-100.00,SW,227,7.0,17.0,62,0.00,,,-99.99,0.000000,,2013-04-28 10:02:00,
2013-04-28 04:32:00,38.0,27.0,-100.00,West,273,7.0,15.0,64,0.00,,,0.00,0.000000,,2013-04-28 10:32:00,
2013-04-28 04:42:00,38.0,27.0,-100.00,West,273,7.0,15.0,64,0.00,,,0.00,0.000000,,2013-04-28 10:42:00,
2013-04-28 04:52:00,38.0,27.0,-100.00,West,273,7.0,15.0,64,0.00,,,0.00,0.000000,,2013-04-28 10:52:00,
2013-04-28 05:02:00,38.0,27.0,-100.00,West,273,7.0,15.0,64,0.00,,,0.00,0.000000,,2013-04-28 11:02:00,
2013-04-28 05:32:00,38.0,28.0,-100.00,West,272,9.0,13.0,66,0.00,,,0.00,0.000000,,2013-04-28 11:32:00,
2013-04-28 05:42:00,38.0,28.0,-100.00,West,272,9.0,13.0,66,0.00,,,0.00,0.000000,,2013-04-28 11:42:00,
2013-04-28 05:52:00,38.0,28.0,-100.00,West,272,9.0,13.0,66,0.00,,,0.00,0.000000,,2013-04-28 11:52:00,
2013-04-28 06:01:00,38.0,28.0,-100.00,West,272,9.0,13.0,66,0.00,,,0.00,0.000000,,2013-04-28 12:01:00,
2013-04-28 06:32:00,37.0,27.0,-100.00,WSW,251,8.0,14.0,68,0.00,,,-99.99,0.000000,,2013-04-28 12:32:00,
2013-04-28 06:42:00,37.0,27.0,-100.00,WSW,251,8.0,14.0,68,0.00,,,-99.99,0.000000,,2013-04-28 12:42:00,
2013-04-28 06:52:00,37.0,27.0,-100.00,WSW,251,8.0,14.0,68,0.00,,,-99.99,0.000000,,2013-04-28 12:52:00,
2013-04-28 07:02:00,37.0,27.0,-100.00,WSW,251,8.0,14.0,68,0.00,,,-99.99,0.000000,,2013-04-28 13:02:00,
2013-04-28 07:32:00,37.0,28.0,-100.00,WNW,285,7.0,12.0,70,0.00,,,0.00,8.000000,,2013-04-28 13:32:00,
2013-04-28 07:42:00,37.0,28.0,-100.00,WNW,285,7.0,12.0,70,0.00,,,0.00,8.000000,,2013-04-28 13:42:00,
2013-04-28 07:52:00,37.0,28.0,-100.00,WNW,285,7.0,12.0,70,0.00,,,0.00,8.000000,,2013-04-28 13:52:00,
2013-04-28 08:01:00,37.0,28.0,-100.00,WNW,285,7.0,12.0,70,0.00,,,0.00,8.000000,,2013-04-28 14:01:00,
2013-04-28 08:32:00,37.0,28.0,-100.00,WSW,254,3.0,9.0,70,0.00,,,0.00,59.000000,,2013-04-28 14:32:00,
2013-04-28 08:42:00,37.0,28.0,-100.00,WSW,254,3.0,9.0,70,0.00,,,0.00,59.000000,,2013-04-28 14:42:00,
2013-04-28 08:52:00,37.0,28.0,-100.00,WSW,254,3.0,9.0,70,0.00,,,0.00,59.000000,,2013-04-28 14:52:00,
2013-04-28 09:01:00,37.0,28.0,-100.00,WSW,254,3.0,9.0,70,0.00,,,0.00,59.000000,,2013-04-28 15:01:00,
2013-04-28 09:33:00,37.0,29.0,-100.00,SSW,209,6.0,14.0,73,0.00,,,0.00,53.000000,,2013-04-28 15:33:00,
2013-04-28 09:42:00,37.0,29.0,-100.00,SSW,209,6.0,14.0,73,0.00,,,0.00,53.000000,,2013-04-28 15:42:00,
2013-04-28 09:53:00,37.0,29.0,-100.00,SSW,209,6.0,14.0,73,0.00,,,0.00,53.000000,,2013-04-28 15:53:00,
2013-04-28 10:03:00,37.0,29.0,-100.00,SSW,209,6.0,14.0,73,0.00,,,0.00,53.000000,,2013-04-28 16:03:00,
2013-04-28 10:33:00,39.0,31.0,-100.00,SSW,213,4.0,15.0,72,0.00,,,-99.99,166.000000,,2013-04-28 16:33:00,
2013-04-28 10:43:00,39.0,31.0,-100.00,SSW,213,4.0,15.0,72,0.00,,,-99.99,166.000000,,2013-04-28 16:43:00,
2013-04-28 10:52:00,39.0,31.0,-100.00,SSW,213,4.0,15.0,72,0.00,,,-99.99,166.000000,,2013-04-28 16:52:00,
2013-04-28 11:02:00,39.0,31.0,-100.00,SSW,213,4.0,15.0,72,0.00,,,-99.99,166.000000,,2013-04-28 17:02:00,
2013-04-28 11:32:00,41.0,28.0,-100.00,SSW,202,15.0,27.0,59,0.00,,,0.00,518.000000,,2013-04-28 17:32:00,
2013-04-28 11:43:00,41.0,28.0,-100.00,SSW,202,15.0,27.0,59,0.00,,,0.00,518.000000,,2013-04-28 17:43:00,
2013-04-28 11:52:00,41.0,28.0,-100.00,SSW,202,15.0,27.0,59,0.00,,,0.00,518.000000,,2013-04-28 17:52:00,
2013-04-28 12:01:00,41.0,28.0,-100.00,SSW,202,15.0,27.0,59,0.00,,,0.00,518.000000,,2013-04-28 18:01:00,
2013-04-28 12:32:00,42.0,23.0,-100.00,WSW,239,16.0,26.0,47,0.00,,,0.00,471.000000,,2013-04-28 18:32:00,
2013-04-28 12:42:00,42.0,23.0,-100.00,WSW,239,16.0,26.0,47,0.00,,,0.00,471.000000,,2013-04-28 18:42:00,
2013-04-28 12:52:00,42.0,23.0,-100.00,WSW,239,16.0,26.0,47,0.00,,,0.00,471.000000,,2013-04-28 18:52:00,
2013-04-28 13:01:00,42.0,23.0,-100.00,WSW,239,16.0,26.0,47,0.00,,,0.00,471.000000,,2013-04-28 19:01:00,
2013-04-28 13:32:00,45.0,20.0,-100.00,SW,236,15.0,26.0,37,0.00,,,0.00,582.000000,,2013-04-28 19:32:00,
2013-04-28 14:33:00,44.0,23.0,-100.00,West,263,13.0,28.0,43,0.00,,,-99.99,640.000000,,2013-04-28 20:33:00,
2013-04-28 14:42:00,44.0,23.0,-100.00,West,263,13.0,28.0,43,0.00,,,-99.99,640.000000,,2013-04-28 20:42:00,
2013-04-28 14:52:00,44.0,23.0,-100.00,West,263,13.0,28.0,43,0.00,,,-99.99,640.000000,,2013-04-28 20:52:00,
2013-04-28 15:01:00,44.0,23.0,-100.00,West,263,13.0,28.0,43,0.00,,,-99.99,640.000000,,2013-04-28 21:01:00,
2013-04-28 15:33:00,46.0,19.0,-100.00,WSW,245,18.0,30.0,33,0.00,,,0.00,853.000000,,2013-04-28 21:33:00,
2013-04-28 16:34:00,51.0,21.0,-100.00,WSW,251,12.0,32.0,30,0.00,,,0.00,866.000000,,2013-04-28 22:34:00,
2013-04-28 16:42:00,51.0,21.0,-100.00,WSW,251,12.0,32.0,30,0.00,,,0.00,866.000000,,2013-04-28 22:42:00,
2013-04-28 16:52:00,51.0,21.0,-100.00,WSW,251,12.0,32.0,30,0.00,,,0.00,866.000000,,2013-04-28 22:52:00,
2013-04-28 17:02:00,51.0,21.0,-100.00,WSW,251,12.0,32.0,30,0.00,,,0.00,866.000000,,2013-04-28 23:02:00,
2013-04-28 17:32:00,46.0,19.0,-100.00,SW,233,16.0,29.0,34,0.00,,,0.00,517.000000,,2013-04-28 23:32:00,
2013-04-28 17:42:00,46.0,19.0,-100.00,SW,233,16.0,29.0,34,0.00,,,0.00,517.000000,,2013-04-28 23:42:00,
2013-04-28 17:52:00,46.0,19.0,-100.00,SW,233,16.0,29.0,34,0.00,,,0.00,517.000000,,2013-04-28 23:52:00,
2013-04-28 18:01:00,46.0,19.0,-100.00,SW,233,16.0,29.0,34,0.00,,,0.00,517.000000,,2013-04-29 00:01:00,
2013-04-28 19:32:00,45.0,23.0,-100.00,WSW,258,15.0,23.0,42,-99.99,,,0.00,275.000000,,2013-04-29 01:32:00,
2013-04-28 19:42:00,45.0,23.0,-100.00,WSW,258,15.0,23.0,42,-99.99,,,0.00,275.000000,,2013-04-29 01:42:00,
2013-04-28 19:52:00,45.0,23.0,-100.00,WSW,258,15.0,23.0,42,-99.99,,,0.00,275.000000,,2013-04-29 01:52:00,
2013-04-28 20:01:00,45.0,23.0,-100.00,WSW,258,15.0,23.0,42,-99.99,,,0.00,275.000000,,2013-04-29 02:01:00,
2013-04-28 20:32:00,42.0,23.0,-100.00,WNW,285,12.0,22.0,46,0.00,,,0.00,92.000000,,2013-04-29 02:32:00,
2013-04-28 20:42:00,42.0,23.0,-100.00,WNW,285,12.0,22.0,46,0.00,,,0.00,92.000000,,2013-04-29 02:42:00,
2013-04-28 20:52:00,42.0,23.0,-100.00,WNW,285,12.0,22.0,46,0.00,,,0.00,92.000000,,2013-04-29 02:52:00,
2013-04-28 21:01:00,42.0,23.0,-100.00,WNW,285,12.0,22.0,46,0.00,,,0.00,92.000000,,2013-04-29 03:01:00,
2013-04-28 21:33:00,40.0,21.0,-100.00,SW,236,9.0,20.0,47,0.00,,,0.00,10.000000,,2013-04-29 03:33:00,
2013-04-28 21:43:00,40.0,21.0,-100.00,SW,236,9.0,20.0,47,0.00,,,0.00,10.000000,,2013-04-29 03:43:00,
2013-04-28 21:53:00,40.0,21.0,-100.00,SW,236,9.0,20.0,47,0.00,,,0.00,10.000000,,2013-04-29 03:53:00,
2013-04-28 22:02:00,40.0,21.0,-100.00,SW,236,9.0,20.0,47,0.00,,,0.00,10.000000,,2013-04-29 04:02:00,
2013-04-28 22:33:00,40.0,20.0,-100.00,SW,220,10.0,22.0,44,0.00,,,0.00,0.000000,,2013-04-29 04:33:00,
2013-04-28 22:43:00,40.0,20.0,-100.00,SW,220,10.0,22.0,44,0.00,,,0.00,0.000000,,2013-04-29 04:43:00,
2013-04-28 22:52:00,40.0,20.0,-100.00,SW,220,10.0,22.0,44,0.00,,,0.00,0.000000,,2013-04-29 04:52:00,
2013-04-28 23:02:00,40.0,20.0,-100.00,SW,220,10.0,22.0,44,0.00,,,0.00,0.000000,,2013-04-29 05:02:00,
2013-04-28 23:32:00,39.0,19.0,-100.00,SSW,208,11.0,17.0,44,0.00,,,0.00,0.000000,,2013-04-29 05:32:00,
2013-04-28 23:42:00,39.0,19.0,-100.00,SSW,208,11.0,17.0,44,0.00,,,0.00,0.000000,,2013-04-29 05:42:00,
2013-04-28 23:52:00,39.0,19.0,-100.00,SSW,208,11.0,17.0,44,0.00,,,0.00,0.000000,,2013-04-29 05:52:00,